Saint-Marc, Haiti
Current Conditions -  °F | °C
As of 8:00 AM on Friday 24 Oct 2014 (Local Time) from MDBH Reporting Station
Scattered Clouds Scattered Clouds  
Wind Chill: 82°   Ceiling: Unl
Heat Index: 87°   Visibility: 6mi
Dew Point: 72°   Wind: 6mph
Humidity: 70%   Direction: 270°W
Pressure: 29.97"   Gusts: NA
Location:  19.11°N, 72.7°W
Report Text: MDBH 241300Z 27005KT 9999 FEW020CB FEW022 SCT300 28/22 Q1015 CB/SE
Loading
Personal Weather Stations






























Interactive Weather Map
Tropical Storm Tracking
New forecast layout! Learn more

10-Day Weather Forecast

Advertisements
Track Severe Weather on mobile